createdAt,value
2022-11-28T00:01:29.571Z,85.08
2022-11-28T00:03:57.682Z,85.10
2022-11-28T00:06:27.464Z,85.05
2022-11-28T00:08:58.249Z,85.06
2022-11-28T00:11:26.719Z,84.97
2022-11-28T00:13:54.778Z,84.95
2022-11-28T00:16:23.648Z,84.84
2022-11-28T00:18:54.195Z,84.89
2022-11-28T00:21:22.288Z,84.88
2022-11-28T00:23:50.835Z,84.93
2022-11-28T00:26:29.411Z,84.94
2022-11-28T00:28:59.077Z,84.95
2022-11-28T00:31:30.657Z,84.98
2022-11-28T00:34:01.033Z,85.05
2022-11-28T00:36:32.837Z,85.20
2022-11-28T00:39:00.460Z,85.27
2022-11-28T00:41:41.167Z,85.30
2022-11-28T00:44:13.377Z,85.37
2022-11-28T00:46:41.787Z,85.37
2022-11-28T00:49:09.690Z,85.38
2022-11-28T00:51:37.852Z,85.33
2022-11-28T00:54:06.569Z,85.37
2022-11-28T00:56:37.956Z,85.37
2022-11-28T00:59:06.745Z,85.30
2022-11-28T01:01:41.694Z,85.21
2022-11-28T01:04:13.624Z,85.18
2022-11-28T01:06:49.222Z,85.28
2022-11-28T01:09:21.615Z,85.38
2022-11-28T01:11:53.069Z,85.38
2022-11-28T01:14:25.351Z,85.35
2022-11-28T01:16:53.319Z,85.29
2022-11-28T01:19:21.187Z,85.29
2022-11-28T01:21:49.718Z,85.24
2022-11-28T01:24:17.992Z,85.20
2022-11-28T01:26:45.929Z,85.28
2022-11-28T01:29:13.949Z,85.33
2022-11-28T01:31:41.816Z,85.39
2022-11-28T01:34:09.506Z,85.39
2022-11-28T01:36:37.245Z,85.39
2022-11-28T01:39:06.111Z,85.38
2022-11-28T01:41:33.977Z,85.37
2022-11-28T01:44:06.821Z,85.37
2022-11-28T01:46:35.721Z,85.38
2022-11-28T01:49:17.447Z,85.44
2022-11-28T01:51:53.545Z,85.54
2022-11-28T01:54:24.758Z,85.53
2022-11-28T01:57:00.425Z,85.56
2022-11-28T01:59:33.672Z,85.62
2022-11-28T02:02:05.013Z,85.63
2022-11-28T02:04:34.249Z,85.68
2022-11-28T02:07:02.027Z,85.68
2022-11-28T02:09:29.791Z,85.71
2022-11-28T02:12:15.172Z,85.73
2022-11-28T02:15:09.384Z,85.72
2022-11-28T02:18:14.311Z,85.71
2022-11-28T02:21:25.618Z,85.69
2022-11-28T02:24:07.682Z,85.66
2022-11-28T02:27:01.658Z,85.72
2022-11-28T02:29:47.016Z,85.72
2022-11-28T02:32:26.101Z,85.76
2022-11-28T02:35:37.418Z,85.73
2022-11-28T02:38:31.347Z,85.79
2022-11-28T02:41:04.502Z,85.85
2022-11-28T02:43:52.305Z,85.88
2022-11-28T02:46:46.909Z,85.86
2022-11-28T02:49:22.567Z,85.87
2022-11-28T02:51:58.023Z,85.86
2022-11-28T02:54:27.258Z,85.88
2022-11-28T02:56:55.372Z,85.90
2022-11-28T02:59:42.906Z,85.91
2022-11-28T03:02:22.451Z,85.94
2022-11-28T03:05:19.766Z,86.00
2022-11-28T03:08:19.062Z,86.02
2022-11-28T03:11:17.396Z,86.12
2022-11-28T03:13:59.785Z,86.14
2022-11-28T03:16:32.959Z,86.23
2022-11-28T03:19:23.794Z,86.49
2022-11-28T03:22:08.960Z,86.27
2022-11-28T03:24:54.459Z,86.20
2022-11-28T03:27:35.891Z,86.23
2022-11-28T03:30:19.088Z,86.25
2022-11-28T03:32:50.759Z,86.29
2022-11-28T03:35:23.581Z,86.26
2022-11-28T03:37:55.426Z,86.29
2022-11-28T03:40:28.277Z,86.33
2022-11-28T03:43:04.291Z,86.39
2022-11-28T03:45:45.393Z,86.44
2022-11-28T03:48:21.451Z,86.50
2022-11-28T03:50:59.565Z,86.51
2022-11-28T03:53:38.830Z,86.56
2022-11-28T03:56:23.116Z,86.60
2022-11-28T03:58:58.612Z,86.62
2022-11-28T04:01:37.270Z,86.65
2022-11-28T04:04:34.611Z,86.58
2022-11-28T04:07:10.251Z,86.62
2022-11-28T04:09:48.730Z,86.62
2022-11-28T04:12:36.129Z,86.67
2022-11-28T04:15:14.982Z,86.68
2022-11-28T04:17:50.925Z,86.69
2022-11-28T04:20:27.057Z,86.71
2022-11-28T04:23:00.310Z,86.76
2022-11-28T04:25:31.745Z,86.92
2022-11-28T04:28:04.976Z,87.03
2022-11-28T04:30:34.120Z,87.09
2022-11-28T04:33:06.113Z,87.11
2022-11-28T04:35:38.225Z,87.06
2022-11-28T04:38:09.363Z,87.10
2022-11-28T04:40:42.416Z,87.13
2022-11-28T04:43:15.769Z,87.16
2022-11-28T04:45:54.994Z,87.15
2022-11-28T04:48:23.790Z,87.14
2022-11-28T04:51:30.844Z,87.17
2022-11-28T04:54:29.700Z,87.22
2022-11-28T04:57:35.072Z,87.26
2022-11-28T05:00:13.264Z,87.19
2022-11-28T05:02:44.025Z,87.18
2022-11-28T05:05:19.715Z,87.24
2022-11-28T05:07:48.313Z,87.26
2022-11-28T05:10:16.612Z,87.32
2022-11-28T05:12:44.310Z,87.27
2022-11-28T05:15:12.357Z,87.19
2022-11-28T05:17:42.485Z,87.10
2022-11-28T05:20:10.470Z,87.15
2022-11-28T05:22:39.817Z,87.21
2022-11-28T05:25:08.516Z,87.28
2022-11-28T05:27:36.334Z,87.27
2022-11-28T05:30:06.567Z,87.26
2022-11-28T05:32:35.850Z,87.31
2022-11-28T05:35:17.068Z,87.36
2022-11-28T05:37:59.021Z,87.39
2022-11-28T05:40:28.291Z,87.47
2022-11-28T05:43:05.826Z,87.53
2022-11-28T05:45:41.232Z,87.52
2022-11-28T05:48:09.297Z,87.54
2022-11-28T05:50:40.785Z,87.49
2022-11-28T05:53:11.624Z,87.43
2022-11-28T05:55:40.668Z,87.41
2022-11-28T05:58:08.652Z,87.43
2022-11-28T06:00:37.319Z,87.38
2022-11-28T06:03:05.624Z,87.23
2022-11-28T06:05:42.632Z,87.24
2022-11-28T06:08:03.111Z,87.16
2022-11-28T06:10:31.137Z,87.19
2022-11-28T06:12:59.134Z,87.20
2022-11-28T06:15:27.101Z,87.26
2022-11-28T06:17:55.989Z,87.36
2022-11-28T06:20:24.475Z,87.50
2022-11-28T06:22:52.664Z,87.45
2022-11-28T06:25:20.669Z,87.46
2022-11-28T06:27:50.221Z,87.51
2022-11-28T06:30:18.118Z,87.47
2022-11-28T06:32:46.186Z,87.54
2022-11-28T06:35:14.281Z,87.62
2022-11-28T06:37:42.160Z,87.79
2022-11-28T06:40:10.647Z,87.95
2022-11-28T06:42:38.584Z,87.92
2022-11-28T06:45:08.803Z,88.06
2022-11-28T06:47:36.535Z,88.20
2022-11-28T06:50:05.593Z,88.22
2022-11-28T06:52:34.237Z,88.30
2022-11-28T06:55:04.968Z,88.34
2022-11-28T07:00:34.749Z,87.84
2022-11-28T07:03:02.736Z,87.61
2022-11-28T07:05:30.730Z,87.50
2022-11-28T07:07:58.792Z,87.16
2022-11-28T07:10:28.981Z,86.94
2022-11-28T07:13:04.947Z,86.82
2022-11-28T07:15:29.734Z,86.78
2022-11-28T07:17:57.730Z,86.72
2022-11-28T07:20:25.616Z,86.58
2022-11-28T07:22:53.482Z,86.45
2022-11-28T07:25:23.335Z,86.53
2022-11-28T07:27:51.511Z,86.31
2022-11-28T07:30:19.805Z,86.26
2022-11-28T07:32:47.429Z,86.30
2022-11-28T07:35:15.474Z,86.15
2022-11-28T07:37:43.425Z,85.99
2022-11-28T07:40:12.998Z,86.06
2022-11-28T07:42:40.874Z,86.08
2022-11-28T07:45:11.208Z,86.13
2022-11-28T07:47:39.087Z,86.20
2022-11-28T07:50:08.311Z,86.29
2022-11-28T07:52:36.277Z,86.21
2022-11-28T07:55:04.704Z,86.29
2022-11-28T07:57:32.992Z,86.00
2022-11-28T08:00:02.871Z,85.72
2022-11-28T08:02:33.893Z,84.62
2022-11-28T08:05:02.750Z,84.80
2022-11-28T08:07:30.735Z,84.46
2022-11-28T08:10:10.629Z,83.82
2022-11-28T08:12:48.733Z,83.68
2022-11-28T08:15:22.338Z,83.32
2022-11-28T08:17:52.882Z,82.85
2022-11-28T08:20:21.064Z,82.17
2022-11-28T08:22:51.393Z,82.02
2022-11-28T08:25:22.323Z,81.39
2022-11-28T08:27:50.472Z,81.33
2022-11-28T08:30:26.231Z,80.96
2022-11-28T08:33:01.470Z,80.88
2022-11-28T08:35:34.687Z,80.69
2022-11-28T08:38:04.655Z,80.65
2022-11-28T08:40:44.828Z,80.84
2022-11-28T08:43:31.851Z,80.49
2022-11-28T08:46:15.336Z,80.16
2022-11-28T08:52:05.196Z,80.01
2022-11-28T08:54:34.726Z,79.80
2022-11-28T08:57:02.615Z,79.74
2022-11-28T08:59:30.495Z,79.81
2022-11-28T09:01:58.401Z,80.04
2022-11-28T09:04:26.485Z,79.72
2022-11-28T09:06:54.566Z,79.73
2022-11-28T09:09:22.697Z,79.38
2022-11-28T09:11:51.665Z,78.97
2022-11-28T09:14:19.808Z,78.43
2022-11-28T09:16:47.817Z,76.92
2022-11-28T09:19:15.757Z,75.81
2022-11-28T09:21:43.592Z,76.12
2022-11-28T09:24:13.283Z,75.93
2022-11-28T09:26:41.959Z,76.05
2022-11-28T09:29:10.028Z,76.10
2022-11-28T09:31:38.706Z,75.89
2022-11-28T09:34:08.704Z,74.58
2022-11-28T09:36:36.582Z,74.41
2022-11-28T09:39:04.441Z,73.47
2022-11-28T09:41:46.339Z,73.46
2022-11-28T09:44:36.385Z,73.12
2022-11-28T09:47:09.613Z,72.17
2022-11-28T09:49:48.670Z,70.16
2022-11-28T09:53:12.658Z,66.05
2022-11-28T09:55:50.709Z,67.79
2022-11-28T09:58:40.540Z,68.48
2022-11-28T10:01:16.719Z,68.39
2022-11-28T10:04:04.958Z,68.14
2022-11-28T10:07:08.249Z,68.00
2022-11-28T10:10:04.397Z,67.56
2022-11-28T10:13:11.129Z,66.31
2022-11-28T10:16:00.523Z,65.48
2022-11-28T10:18:36.828Z,63.91
2022-11-28T10:21:36.790Z,64.68
2022-11-28T10:24:29.099Z,64.32
2022-11-28T10:27:06.095Z,63.67
2022-11-28T10:29:42.626Z,63.32
2022-11-28T10:32:21.263Z,63.72
2022-11-28T10:35:16.971Z,63.74
2022-11-28T10:37:44.879Z,63.92
2022-11-28T10:40:36.697Z,61.04
2022-11-28T10:43:46.084Z,61.88
2022-11-28T10:46:43.297Z,61.89
2022-11-28T10:49:47.375Z,60.51
2022-11-28T10:52:48.636Z,59.34
2022-11-28T10:55:42.378Z,58.61
2022-11-28T10:58:18.841Z,58.43
2022-11-28T11:00:50.764Z,58.90
2022-11-28T11:03:20.986Z,59.17
2022-11-28T11:05:48.506Z,58.10
2022-11-28T11:08:28.953Z,58.04
2022-11-28T11:11:18.993Z,58.21
2022-11-28T11:14:06.523Z,58.14
2022-11-28T11:16:50.698Z,57.90
2022-11-28T11:19:36.070Z,58.47
2022-11-28T11:22:25.543Z,58.07
2022-11-28T11:25:19.309Z,59.26
2022-11-28T11:27:52.165Z,59.43
2022-11-28T11:30:32.215Z,58.38
2022-11-28T11:33:04.044Z,58.37
2022-11-28T11:35:40.711Z,58.77
2022-11-28T11:38:37.484Z,58.78
2022-11-28T11:41:31.551Z,58.56
2022-11-28T11:44:17.428Z,58.91
2022-11-28T11:46:57.509Z,58.23
2022-11-28T11:49:50.983Z,58.74
2022-11-28T11:52:25.722Z,59.04
2022-11-28T11:55:11.035Z,59.95
2022-11-28T11:57:50.447Z,60.55
2022-11-28T12:00:27.196Z,61.38
2022-11-28T12:02:59.766Z,61.72
2022-11-28T12:05:52.389Z,62.32
2022-11-28T12:08:30.910Z,62.74
2022-11-28T12:11:24.820Z,63.14
2022-11-28T12:13:53.877Z,63.47
2022-11-28T12:16:42.547Z,63.74
2022-11-28T12:19:16.211Z,63.96
2022-11-28T12:22:27.961Z,64.33
2022-11-28T12:25:39.300Z,64.43
2022-11-28T12:28:32.654Z,64.77
2022-11-28T12:31:08.860Z,65.07
2022-11-28T12:33:54.528Z,65.23
2022-11-28T12:36:30.725Z,64.99
2022-11-28T12:39:43.942Z,65.40
2022-11-28T12:42:29.255Z,65.44
2022-11-28T12:45:17.445Z,65.57
2022-11-28T12:48:10.822Z,65.42
2022-11-28T12:51:11.140Z,65.30
2022-11-28T12:54:17.938Z,65.27
2022-11-28T12:57:07.861Z,64.85
2022-11-28T12:59:44.808Z,64.12
2022-11-28T13:02:47.161Z,63.72
2022-11-28T13:05:55.549Z,63.92
2022-11-28T13:08:50.168Z,64.02
2022-11-28T13:11:41.801Z,64.05
2022-11-28T13:14:24.073Z,63.59
2022-11-28T13:16:57.052Z,63.99
2022-11-28T13:19:43.533Z,64.02
2022-11-28T13:22:16.144Z,64.05
2022-11-28T13:25:00.034Z,63.93
2022-11-28T13:27:36.648Z,63.99
2022-11-28T13:30:16.136Z,63.94
2022-11-28T13:33:16.740Z,64.12
2022-11-28T13:35:46.632Z,64.20
2022-11-28T13:38:38.433Z,64.32
2022-11-28T13:41:28.442Z,64.30
2022-11-28T13:43:53.329Z,64.31
2022-11-28T13:46:23.595Z,64.78
2022-11-28T13:49:14.211Z,64.85
2022-11-28T13:51:37.222Z,64.87
2022-11-28T13:54:25.850Z,65.00
2022-11-28T13:57:14.623Z,65.17
2022-11-28T13:59:51.067Z,65.30
2022-11-28T14:02:27.818Z,65.38
2022-11-28T14:04:56.730Z,65.68
2022-11-28T14:07:30.190Z,65.89
2022-11-28T14:10:31.339Z,66.00
2022-11-28T14:13:42.839Z,66.11
2022-11-28T14:16:35.375Z,66.26
2022-11-28T14:19:39.540Z,66.40
2022-11-28T14:22:49.208Z,66.54
2022-11-28T14:25:24.394Z,66.72
2022-11-28T14:28:00.156Z,66.97
2022-11-28T14:30:34.584Z,67.20
2022-11-28T14:33:08.048Z,67.57
2022-11-28T14:36:05.401Z,67.68
2022-11-28T14:38:38.068Z,67.84
2022-11-28T14:41:12.536Z,68.42
2022-11-28T14:43:47.064Z,68.25
2022-11-28T14:46:36.494Z,68.36
2022-11-28T14:49:20.946Z,68.44
2022-11-28T14:52:16.012Z,68.71
2022-11-28T14:54:41.623Z,68.96
2022-11-28T14:57:24.653Z,69.03
2022-11-28T14:59:57.787Z,69.34
2022-11-28T15:03:00.355Z,69.60
2022-11-28T15:05:55.950Z,69.75
2022-11-28T15:08:57.014Z,69.90
2022-11-28T15:12:21.651Z,70.09
2022-11-28T15:14:54.324Z,70.46
2022-11-28T15:17:27.945Z,70.69
2022-11-28T15:19:59.053Z,70.82
2022-11-28T15:22:34.810Z,70.91
2022-11-28T15:25:03.150Z,71.08
2022-11-28T15:27:31.261Z,71.33
2022-11-28T15:30:01.079Z,71.43
2022-11-28T15:32:31.872Z,71.57
2022-11-28T15:35:10.907Z,71.71
2022-11-28T15:37:35.508Z,71.86
2022-11-28T16:48:18.583Z,75.12
2022-11-28T16:51:14.860Z,75.29
2022-11-28T16:56:49.626Z,75.46
2022-11-28T16:59:28.817Z,75.49
2022-11-28T17:01:59.555Z,75.58
2022-11-28T17:04:30.328Z,75.61
2022-11-28T17:07:02.183Z,75.79
2022-11-28T17:09:29.977Z,75.92
2022-11-28T17:12:07.631Z,76.02
2022-11-28T17:14:37.213Z,76.15
2022-11-28T17:17:16.576Z,76.22
2022-11-28T17:19:45.508Z,76.26
2022-11-28T17:22:17.750Z,76.46
2022-11-28T17:24:48.323Z,76.65
2022-11-28T17:27:16.950Z,76.68
2022-11-28T17:29:45.168Z,76.75
2022-11-28T17:32:14.252Z,76.82
2022-11-28T17:34:42.949Z,76.96
2022-11-28T17:37:10.746Z,77.09
2022-11-28T17:39:38.375Z,77.26
2022-11-28T17:42:06.481Z,77.48
2022-11-28T17:44:37.135Z,77.69
2022-11-28T17:47:05.845Z,77.61
2022-11-28T17:49:33.913Z,77.68
2022-11-28T17:52:01.969Z,77.69
2022-11-28T17:54:30.142Z,77.73
2022-11-28T17:56:57.954Z,77.86
2022-11-28T17:59:26.519Z,77.75
2022-11-28T18:01:54.515Z,77.95
2022-11-28T18:04:25.464Z,77.92
2022-11-28T18:06:53.233Z,78.11
2022-11-28T18:09:21.163Z,78.09
2022-11-28T18:11:52.976Z,78.21
2022-11-28T18:14:22.092Z,78.21
2022-11-28T18:16:50.331Z,78.31
2022-11-28T18:19:19.026Z,78.32
2022-11-28T18:21:47.406Z,78.36
2022-11-28T18:24:16.590Z,78.43
2022-11-28T18:26:44.649Z,78.57
2022-11-28T18:29:14.290Z,78.79
2022-11-28T18:31:42.749Z,78.89
2022-11-28T18:34:11.408Z,79.11
2022-11-28T18:36:40.753Z,79.06
2022-11-28T18:39:13.670Z,79.16
2022-11-28T18:41:42.695Z,79.12
2022-11-28T18:44:11.272Z,79.15
2022-11-28T18:46:39.664Z,79.26
2022-11-28T18:49:07.803Z,79.30
2022-11-28T18:51:35.465Z,79.38
2022-11-28T18:54:05.812Z,79.47
2022-11-28T18:56:35.439Z,79.51
2022-11-28T18:59:03.865Z,79.64
2022-11-28T19:01:34.517Z,79.73
2022-11-28T19:04:10.583Z,79.79
2022-11-28T19:06:58.431Z,80.02
2022-11-28T19:09:26.360Z,79.99
2022-11-28T19:11:54.991Z,80.08
2022-11-28T19:14:27.255Z,80.12
2022-11-28T19:16:56.274Z,80.07
2022-11-28T19:19:24.663Z,80.11
2022-11-28T19:21:54.393Z,80.14
2022-11-28T19:24:22.293Z,80.24
2022-11-28T19:26:50.558Z,80.24
2022-11-28T19:29:18.631Z,80.23
2022-11-28T19:31:46.484Z,80.19
2022-11-28T19:34:17.935Z,80.13
2022-11-28T19:36:50.462Z,80.20
2022-11-28T19:39:22.605Z,80.23
2022-11-28T19:41:53.504Z,80.29
2022-11-28T19:44:26.480Z,80.36
2022-11-28T19:46:55.906Z,80.44
2022-11-28T19:49:28.777Z,80.45
2022-11-28T19:51:56.516Z,80.49
2022-11-28T19:54:24.975Z,80.55
2022-11-28T19:56:54.387Z,80.63
2022-11-28T19:59:22.986Z,80.71
2022-11-28T20:01:52.294Z,80.76
2022-11-28T20:04:20.411Z,80.98
2022-11-28T20:06:50.048Z,81.11
2022-11-28T20:09:18.042Z,81.15
2022-11-28T20:11:47.789Z,81.22
2022-11-28T20:14:19.099Z,81.28
2022-11-28T20:16:47.637Z,81.36
2022-11-28T20:19:18.511Z,81.46
2022-11-28T20:21:49.334Z,81.54
2022-11-28T20:24:17.019Z,81.63
2022-11-28T20:26:46.054Z,81.71
2022-11-28T20:29:17.159Z,81.68
2022-11-28T20:31:47.478Z,81.74
2022-11-28T20:34:18.916Z,81.81
2022-11-28T20:36:52.140Z,81.99
2022-11-28T20:39:20.446Z,81.98
2022-11-28T20:41:48.291Z,82.06
2022-11-28T20:44:17.269Z,81.99
2022-11-28T20:46:45.884Z,81.99
2022-11-28T20:49:14.886Z,82.03
2022-11-28T20:51:42.787Z,82.01
2022-11-28T20:54:12.718Z,82.02
2022-11-28T20:57:12.719Z,82.00
2022-11-28T20:59:16.556Z,81.96
2022-11-28T21:01:44.647Z,82.07
2022-11-28T21:04:15.306Z,81.90
2022-11-28T21:06:44.134Z,81.86
2022-11-28T21:09:12.350Z,81.93
2022-11-28T21:14:09.551Z,81.74
2022-11-28T21:16:37.302Z,81.68
2022-11-28T21:19:08.464Z,81.63
2022-11-28T21:21:39.285Z,81.57
2022-11-28T21:24:11.719Z,81.49
2022-11-28T21:26:45.359Z,81.42
2022-11-28T21:29:12.242Z,81.40
2022-11-28T21:31:43.187Z,81.29
2022-11-28T21:34:15.928Z,81.26
2022-11-28T21:36:46.088Z,81.28
2022-11-28T21:39:18.180Z,81.22
2022-11-28T21:41:45.970Z,81.19
2022-11-28T21:44:14.133Z,81.27
2022-11-28T21:46:41.966Z,81.21
2022-11-28T21:49:09.937Z,81.22
2022-11-28T21:51:39.793Z,81.20
2022-11-28T21:54:10.485Z,81.14
2022-11-28T21:56:38.348Z,81.18
2022-11-28T21:59:06.432Z,81.16
2022-11-28T22:01:34.351Z,81.16
2022-11-28T22:04:03.354Z,81.08
2022-11-28T22:06:32.592Z,81.03
2022-11-28T22:09:08.794Z,81.01
2022-11-28T22:11:32.588Z,81.05
2022-11-28T22:14:00.013Z,81.00
2022-11-28T22:16:29.401Z,81.01
2022-11-28T22:18:59.779Z,81.01
2022-11-28T22:23:58.547Z,80.85
2022-11-28T22:26:26.140Z,80.78
2022-11-28T22:28:54.206Z,81.03
2022-11-28T22:31:23.725Z,81.14
2022-11-28T22:33:51.981Z,81.13
2022-11-28T22:36:22.360Z,81.22
2022-11-28T22:38:56.461Z,81.17
2022-11-28T22:41:29.387Z,81.10
2022-11-28T22:43:59.687Z,81.03
2022-11-28T22:46:28.475Z,81.04
2022-11-28T22:48:57.968Z,80.90
2022-11-28T22:51:27.916Z,80.91
2022-11-28T22:53:58.769Z,80.89
2022-11-28T22:56:28.944Z,80.81
2022-11-28T22:58:58.923Z,80.79
2022-11-28T23:01:30.073Z,80.81
2022-11-28T23:03:58.326Z,80.71
2022-11-28T23:06:30.574Z,80.73
2022-11-28T23:09:00.826Z,80.69
2022-11-28T23:11:32.956Z,80.72
2022-11-28T23:14:02.037Z,80.68
2022-11-28T23:16:37.477Z,80.65
2022-11-28T23:19:12.591Z,80.65
2022-11-28T23:21:43.755Z,80.62
2022-11-28T23:24:18.981Z,80.57
2022-11-28T23:26:47.760Z,80.55
2022-11-28T23:29:16.141Z,80.54
2022-11-28T23:31:46.420Z,80.61
2022-11-28T23:34:15.062Z,80.72
2022-11-28T23:36:46.593Z,80.73
2022-11-28T23:39:22.324Z,80.77
2022-11-28T23:41:50.527Z,80.89
2022-11-28T23:44:21.176Z,80.90
2022-11-28T23:46:50.843Z,80.92
2022-11-28T23:49:18.647Z,81.00
2022-11-28T23:51:46.330Z,81.07
2022-11-28T23:54:14.272Z,81.15
2022-11-28T23:56:43.451Z,81.20
2022-11-28T23:59:12.469Z,81.25
